Grand Mercury — HOOC — position and weather

sailwx.info

Track history (hours):
 
Tides and Currents Weather Stations Pressure Air Temp Water Temp Dewpoint Dewpoint Depression Visibility Wind Speed Wind Dir Waves Ship Positions

Grand Mercury

Last reported at 2017-Aug-14 10:06 UTC. Time now 2017-Aug-17 17:34 UTC.
Position N 25°13' W 114°37'.

Length 200 m; draft 9.2 m.

Type: Cargo ship. MMSI: 355649000.

Date/timePositionNaut miles runAvg speedWind from/ knotsBaromVisibWave heightAir tempDewpointWater temp
2017-Aug-14 10:06N 25°13' W 114°37'217.3
2017-Aug-14 10:00N 25°14' W 114°38'2517.5
2017-Aug-14 08:36N 25°28' W 115°00'217.5
2017-Aug-14 08:30N 25°29' W 115°02'4517.5
2017-Aug-14 05:54N 25°56' W 115°43'717.6
2017-Aug-14 05:30N 26°00' W 115°49'1317.6
2017-Aug-14 04:47N 26°08' W 116°00'517.7
2017-Aug-14 04:30N 26°11' W 116°05'1317.5
2017-Aug-14 03:44N 26°19' W 116°17'417.6
2017-Aug-14 03:30N 26°21' W 116°20'917.5
2017-Aug-14 03:00N 26°26' W 116°28'1617.9
2017-Aug-14 02:07N 26°36' W 116°42'217.4
2017-Aug-14 02:00N 26°37' W 116°44'917.6
2017-Aug-14 01:30N 26°42' W 116°52'917.5
2017-Aug-14 01:00N 26°47' W 117°00'917.4
2017-Aug-14 00:30N 26°52' W 117°08'917.1
2017-Aug-14 00:00N 26°57' W 117°16'917.1
2017-Aug-13 23:30N 27°02' W 117°23'817.0
2017-Aug-13 23:00N 27°07' W 117°31'916.8
2017-Aug-13 22:30N 27°12' W 117°39'1016.7
2017-Aug-13 21:55N 27°18' W 117°48'716.9
2017-Aug-13 21:30N 27°22' W 117°54'917.1
2017-Aug-13 21:00N 27°27' W 118°02'1017.1
2017-Aug-13 20:25N 27°33' W 118°11'717.1
2017-Aug-13 20:00N 27°37' W 118°18'2917.3
2017-Aug-13 18:20N 27°54' W 118°44'717.5
2017-Aug-13 17:55N 27°59' W 118°50'1117.5
2017-Aug-13 17:16N 28°05' W 119°01'1017.8
2017-Aug-13 16:43N 28°11' W 119°10'417.9
2017-Aug-13 16:30N 28°14' W 119°13'1018.0
2017-Aug-13 15:57N 28°19' W 119°23'818.1
2017-Aug-13 15:30N 28°24' W 119°30'918.2
2017-Aug-13 15:00N 28°30' W 119°38'918.2
2017-Aug-13 14:30N 28°35' W 119°46'918.0
2017-Aug-13 14:00N 28°40' W 119°55'1118.1
2017-Aug-13 13:24N 28°47' W 120°05'717.9
2017-Aug-13 13:00N 28°51' W 120°11'918.0
2017-Aug-13 12:30N 28°56' W 120°20'1017.8
2017-Aug-13 11:58N 29°02' W 120°29'817.7
2017-Aug-13 11:30N 29°07' W 120°36'917.5
2017-Aug-13 11:00N 29°12' W 120°44'917.6
2017-Aug-13 10:30N 29°17' W 120°52'917.5
2017-Aug-13 10:00N 29°22' W 121°00'917.5
2017-Aug-13 09:30N 29°27' W 121°09'917.7
2017-Aug-13 09:00N 29°33' W 121°17'917.8
2017-Aug-13 08:30N 29°38' W 121°25'917.8
2017-Aug-13 08:00N 29°43' W 121°33'917.9
2017-Aug-13 07:30N 29°48' W 121°42'917.7
2017-Aug-13 07:00N 29°54' W 121°50'917.8
2017-Aug-13 06:30N 29°59' W 121°58'917.8
2017-Aug-13 06:01N 30°04' W 122°07'917.5
2017-Aug-13 05:30N 30°08' W 122°15'917.7
2017-Aug-13 05:00N 30°13' W 122°24'917.8
2017-Aug-13 04:30N 30°18' W 122°33'917.8
2017-Aug-13 04:00N 30°23' W 122°41'917.7
2017-Aug-13 03:30N 30°27' W 122°50'917.7
2017-Aug-13 03:00N 30°32' W 122°59'917.7
2017-Aug-13 02:30N 30°36' W 123°08'918.1
2017-Aug-13 02:00N 30°41' W 123°17'918.1
2017-Aug-13 01:30N 30°46' W 123°25'918.0
2017-Aug-13 01:00N 30°51' W 123°34'918.1
2017-Aug-13 00:30N 30°56' W 123°43'917.9
2017-Aug-13 00:00N 31°00' W 123°52'918.0
2017-Aug-12 23:30N 31°05' W 124°01'918.1
2017-Aug-12 23:00N 31°10' W 124°10'1018.1
2017-Aug-12 22:28N 31°15' W 124°19'818.0
2017-Aug-12 22:00N 31°20' W 124°28'1017.8
2017-Aug-12 21:28N 31°25' W 124°37'917.8
2017-Aug-12 20:57N 31°30' W 124°46'1017.7
2017-Aug-12 20:24N 31°35' W 124°56'4617.8
2017-Aug-12 17:51N 31°59' W 125°41'817.9
2017-Aug-12 17:23N 32°03' W 125°49'817.8
2017-Aug-12 16:56N 32°08' W 125°58'1117.8
2017-Aug-12 16:20N 32°13' W 126°08'617.7
2017-Aug-12 16:00N 32°16' W 126°14'1017.8
2017-Aug-12 15:26N 32°22' W 126°24'817.9
2017-Aug-12 15:00N 32°26' W 126°32'1317.8
2017-Aug-12 14:16N 32°33' W 126°45'517.7
2017-Aug-12 14:00N 32°36' W 126°50'917.8
2017-Aug-12 13:29N 32°40' W 126°59'1317.6
2017-Aug-12 12:44N 32°47' W 127°13'417.4
2017-Aug-12 12:30N 32°49' W 127°16'917.5
2017-Aug-12 12:00N 32°54' W 127°25'1517.4
2017-Aug-12 11:08N 33°02' W 127°41'217.5
2017-Aug-12 11:00N 33°03' W 127°43'1117.3
2017-Aug-12 10:23N 33°09' W 127°54'817.4
2017-Aug-12 09:57N 33°13' W 128°01'817.6
2017-Aug-12 09:30N 33°17' W 128°09'917.6
2017-Aug-12 09:00N 33°22' W 128°18'917.6
2017-Aug-12 08:30N 33°27' W 128°27'917.5
2017-Aug-12 07:59N 33°31' W 128°36'817.5
2017-Aug-12 07:30N 33°36' W 128°45'917.6
2017-Aug-12 07:00N 33°41' W 128°54'917.7
2017-Aug-12 06:30N 33°45' W 129°03'917.6
2017-Aug-12 06:00N 33°50' W 129°12'917.5
2017-Aug-12 05:30N 33°55' W 129°21'917.6
2017-Aug-12 05:00N 33°59' W 129°30'3517.5
2017-Aug-12 02:59N 34°17' W 130°07'1117.9
2017-Aug-12 02:23N 34°22' W 130°18'817.8
2017-Aug-12 01:56N 34°26' W 130°27'1717.8
2017-Aug-12 00:57N 34°34' W 130°46'1218.1
2017-Aug-12 00:16N 34°40' W 130°59'  
Track history (hours):
 
Tides and Currents Weather Stations Pressure Air Temp Water Temp Dewpoint Dewpoint Depression Visibility Wind Speed Wind Dir Waves Ship Positions

Grand Mercury

Last reported at 2017-Aug-14 10:06 UTC. Time now 2017-Aug-17 17:34 UTC.
Position N 25°13' W 114°37'.

Length 200 m; draft 9.2 m.

Type: Cargo ship. MMSI: 355649000.

Date/timePositionNaut miles runAvg speedWind from/ knotsBaromVisibWave heightAir tempDewpointWater temp
2017-Aug-14 10:06N 25°13' W 114°37'217.3
2017-Aug-14 10:00N 25°14' W 114°38'2517.5
2017-Aug-14 08:36N 25°28' W 115°00'217.5
2017-Aug-14 08:30N 25°29' W 115°02'4517.5
2017-Aug-14 05:54N 25°56' W 115°43'717.6
2017-Aug-14 05:30N 26°00' W 115°49'1317.6
2017-Aug-14 04:47N 26°08' W 116°00'517.7
2017-Aug-14 04:30N 26°11' W 116°05'1317.5
2017-Aug-14 03:44N 26°19' W 116°17'417.6
2017-Aug-14 03:30N 26°21' W 116°20'917.5
2017-Aug-14 03:00N 26°26' W 116°28'1617.9
2017-Aug-14 02:07N 26°36' W 116°42'217.4
2017-Aug-14 02:00N 26°37' W 116°44'917.6
2017-Aug-14 01:30N 26°42' W 116°52'917.5
2017-Aug-14 01:00N 26°47' W 117°00'917.4
2017-Aug-14 00:30N 26°52' W 117°08'917.1
2017-Aug-14 00:00N 26°57' W 117°16'917.1
2017-Aug-13 23:30N 27°02' W 117°23'817.0
2017-Aug-13 23:00N 27°07' W 117°31'916.8
2017-Aug-13 22:30N 27°12' W 117°39'1016.7
2017-Aug-13 21:55N 27°18' W 117°48'716.9
2017-Aug-13 21:30N 27°22' W 117°54'917.1
2017-Aug-13 21:00N 27°27' W 118°02'1017.1
2017-Aug-13 20:25N 27°33' W 118°11'717.1
2017-Aug-13 20:00N 27°37' W 118°18'2917.3
2017-Aug-13 18:20N 27°54' W 118°44'717.5
2017-Aug-13 17:55N 27°59' W 118°50'1117.5
2017-Aug-13 17:16N 28°05' W 119°01'1017.8
2017-Aug-13 16:43N 28°11' W 119°10'417.9
2017-Aug-13 16:30N 28°14' W 119°13'1018.0
2017-Aug-13 15:57N 28°19' W 119°23'818.1
2017-Aug-13 15:30N 28°24' W 119°30'918.2
2017-Aug-13 15:00N 28°30' W 119°38'918.2
2017-Aug-13 14:30N 28°35' W 119°46'918.0
2017-Aug-13 14:00N 28°40' W 119°55'1118.1
2017-Aug-13 13:24N 28°47' W 120°05'717.9
2017-Aug-13 13:00N 28°51' W 120°11'918.0
2017-Aug-13 12:30N 28°56' W 120°20'1017.8
2017-Aug-13 11:58N 29°02' W 120°29'817.7
2017-Aug-13 11:30N 29°07' W 120°36'917.5
2017-Aug-13 11:00N 29°12' W 120°44'917.6
2017-Aug-13 10:30N 29°17' W 120°52'917.5
2017-Aug-13 10:00N 29°22' W 121°00'917.5
2017-Aug-13 09:30N 29°27' W 121°09'917.7
2017-Aug-13 09:00N 29°33' W 121°17'917.8
2017-Aug-13 08:30N 29°38' W 121°25'917.8
2017-Aug-13 08:00N 29°43' W 121°33'917.9
2017-Aug-13 07:30N 29°48' W 121°42'917.7
2017-Aug-13 07:00N 29°54' W 121°50'917.8
2017-Aug-13 06:30N 29°59' W 121°58'917.8
2017-Aug-13 06:01N 30°04' W 122°07'917.5
2017-Aug-13 05:30N 30°08' W 122°15'917.7
2017-Aug-13 05:00N 30°13' W 122°24'917.8
2017-Aug-13 04:30N 30°18' W 122°33'917.8
2017-Aug-13 04:00N 30°23' W 122°41'917.7
2017-Aug-13 03:30N 30°27' W 122°50'917.7
2017-Aug-13 03:00N 30°32' W 122°59'917.7
2017-Aug-13 02:30N 30°36' W 123°08'918.1
2017-Aug-13 02:00N 30°41' W 123°17'918.1
2017-Aug-13 01:30N 30°46' W 123°25'918.0
2017-Aug-13 01:00N 30°51' W 123°34'918.1
2017-Aug-13 00:30N 30°56' W 123°43'917.9
2017-Aug-13 00:00N 31°00' W 123°52'918.0
2017-Aug-12 23:30N 31°05' W 124°01'918.1
2017-Aug-12 23:00N 31°10' W 124°10'1018.1
2017-Aug-12 22:28N 31°15' W 124°19'818.0
2017-Aug-12 22:00N 31°20' W 124°28'1017.8
2017-Aug-12 21:28N 31°25' W 124°37'917.8
2017-Aug-12 20:57N 31°30' W 124°46'1017.7
2017-Aug-12 20:24N 31°35' W 124°56'4617.8
2017-Aug-12 17:51N 31°59' W 125°41'817.9
2017-Aug-12 17:23N 32°03' W 125°49'817.8
2017-Aug-12 16:56N 32°08' W 125°58'1117.8
2017-Aug-12 16:20N 32°13' W 126°08'617.7
2017-Aug-12 16:00N 32°16' W 126°14'1017.8
2017-Aug-12 15:26N 32°22' W 126°24'817.9
2017-Aug-12 15:00N 32°26' W 126°32'1317.8
2017-Aug-12 14:16N 32°33' W 126°45'517.7
2017-Aug-12 14:00N 32°36' W 126°50'917.8
2017-Aug-12 13:29N 32°40' W 126°59'1317.6
2017-Aug-12 12:44N 32°47' W 127°13'417.4
2017-Aug-12 12:30N 32°49' W 127°16'917.5
2017-Aug-12 12:00N 32°54' W 127°25'1517.4
2017-Aug-12 11:08N 33°02' W 127°41'217.5
2017-Aug-12 11:00N 33°03' W 127°43'1117.3
2017-Aug-12 10:23N 33°09' W 127°54'817.4
2017-Aug-12 09:57N 33°13' W 128°01'817.6
2017-Aug-12 09:30N 33°17' W 128°09'917.6
2017-Aug-12 09:00N 33°22' W 128°18'917.6
2017-Aug-12 08:30N 33°27' W 128°27'917.5
2017-Aug-12 07:59N 33°31' W 128°36'817.5
2017-Aug-12 07:30N 33°36' W 128°45'917.6
2017-Aug-12 07:00N 33°41' W 128°54'917.7
2017-Aug-12 06:30N 33°45' W 129°03'917.6
2017-Aug-12 06:00N 33°50' W 129°12'917.5
2017-Aug-12 05:30N 33°55' W 129°21'917.6
2017-Aug-12 05:00N 33°59' W 129°30'3517.5
2017-Aug-12 02:59N 34°17' W 130°07'1117.9
2017-Aug-12 02:23N 34°22' W 130°18'817.8
2017-Aug-12 01:56N 34°26' W 130°27'1717.8
2017-Aug-12 00:57N 34°34' W 130°46'1218.1
2017-Aug-12 00:16N 34°40' W 130°59'  

Dump ship's entire track history